sensor_id;sensor_type;location;lat;lon;timestamp;P1;durP1;ratioP1;P2;durP2;ratioP2
22871;SDS011;11603;44.910;8.630;2023-04-15T00:13:38;8.15;;;1.80;;
22871;SDS011;11603;44.910;8.630;2023-04-15T00:17:28;8.68;;;1.88;;
22871;SDS011;11603;44.910;8.630;2023-04-15T00:27:59;8.63;;;2.20;;
22871;SDS011;11603;44.910;8.630;2023-04-15T00:35:20;8.15;;;2.22;;
22871;SDS011;11603;44.910;8.630;2023-04-15T00:39:01;7.32;;;2.13;;
22871;SDS011;11603;44.910;8.630;2023-04-15T00:45:29;7.25;;;1.83;;
22871;SDS011;11603;44.910;8.630;2023-04-15T00:52:42;5.15;;;1.80;;
22871;SDS011;11603;44.910;8.630;2023-04-15T00:56:26;5.72;;;1.60;;
22871;SDS011;11603;44.910;8.630;2023-04-15T01:07:32;12.07;;;2.08;;
22871;SDS011;11603;44.910;8.630;2023-04-15T01:11:09;9.70;;;2.00;;
22871;SDS011;11603;44.910;8.630;2023-04-15T01:14:32;9.25;;;1.88;;
22871;SDS011;11603;44.910;8.630;2023-04-15T01:18:04;15.80;;;2.35;;
22871;SDS011;11603;44.910;8.630;2023-04-15T01:34:25;7.80;;;2.05;;
22871;SDS011;11603;44.910;8.630;2023-04-15T01:45:11;8.50;;;2.10;;
22871;SDS011;11603;44.910;8.630;2023-04-15T01:48:16;9.95;;;2.60;;
22871;SDS011;11603;44.910;8.630;2023-04-15T01:51:33;8.32;;;2.60;;
22871;SDS011;11603;44.910;8.630;2023-04-15T02:29:43;12.07;;;2.28;;
22871;SDS011;11603;44.910;8.630;2023-04-15T02:48:29;7.70;;;2.42;;
22871;SDS011;11603;44.910;8.630;2023-04-15T03:51:09;9.60;;;2.33;;
22871;SDS011;11603;44.910;8.630;2023-04-15T03:54:46;11.23;;;1.88;;
22871;SDS011;11603;44.910;8.630;2023-04-15T03:58:46;11.20;;;2.28;;
22871;SDS011;11603;44.910;8.630;2023-04-15T04:05:36;13.18;;;2.50;;
22871;SDS011;11603;44.910;8.630;2023-04-15T04:09:05;9.00;;;2.33;;
22871;SDS011;11603;44.910;8.630;2023-04-15T04:16:25;7.55;;;2.35;;
22871;SDS011;11603;44.910;8.630;2023-04-15T04:18:51;8.35;;;1.92;;
22871;SDS011;11603;44.910;8.630;2023-04-15T04:21:16;10.73;;;2.22;;
22871;SDS011;11603;44.910;8.630;2023-04-15T04:34:31;8.75;;;2.10;;
22871;SDS011;11603;44.910;8.630;2023-04-15T04:36:56;10.23;;;2.47;;
22871;SDS011;11603;44.910;8.630;2023-04-15T04:39:22;12.98;;;2.67;;
22871;SDS011;11603;44.910;8.630;2023-04-15T04:41:48;12.60;;;2.65;;
22871;SDS011;11603;44.910;8.630;2023-04-15T04:44:14;12.40;;;2.67;;
22871;SDS011;11603;44.910;8.630;2023-04-15T04:46:40;7.97;;;2.70;;
22871;SDS011;11603;44.910;8.630;2023-04-15T04:49:05;12.07;;;2.92;;
22871;SDS011;11603;44.910;8.630;2023-04-15T04:51:31;14.43;;;3.40;;
22871;SDS011;11603;44.910;8.630;2023-04-15T04:53:56;13.50;;;2.80;;
22871;SDS011;11603;44.910;8.630;2023-04-15T04:56:22;10.40;;;2.88;;
22871;SDS011;11603;44.910;8.630;2023-04-15T04:58:47;10.25;;;3.35;;
22871;SDS011;11603;44.910;8.630;2023-04-15T05:01:13;8.32;;;2.80;;
22871;SDS011;11603;44.910;8.630;2023-04-15T05:03:38;7.38;;;2.88;;
22871;SDS011;11603;44.910;8.630;2023-04-15T05:06:04;14.02;;;2.63;;
22871;SDS011;11603;44.910;8.630;2023-04-15T05:08:32;12.60;;;2.80;;
22871;SDS011;11603;44.910;8.630;2023-04-15T05:10:58;9.15;;;3.35;;
22871;SDS011;11603;44.910;8.630;2023-04-15T05:13:24;12.65;;;3.45;;
22871;SDS011;11603;44.910;8.630;2023-04-15T05:15:49;6.97;;;2.97;;
22871;SDS011;11603;44.910;8.630;2023-04-15T05:18:15;10.70;;;3.28;;
22871;SDS011;11603;44.910;8.630;2023-04-15T05:20:41;13.52;;;3.30;;
22871;SDS011;11603;44.910;8.630;2023-04-15T05:23:06;9.27;;;2.97;;
22871;SDS011;11603;44.910;8.630;2023-04-15T05:25:32;7.53;;;3.15;;
22871;SDS011;11603;44.910;8.630;2023-04-15T05:27:57;7.07;;;3.13;;
22871;SDS011;11603;44.910;8.630;2023-04-15T05:30:23;11.25;;;3.53;;
22871;SDS011;11603;44.910;8.630;2023-04-15T05:32:48;7.40;;;3.00;;
22871;SDS011;11603;44.910;8.630;2023-04-15T05:35:14;7.63;;;3.20;;
22871;SDS011;11603;44.910;8.630;2023-04-15T05:37:39;6.30;;;2.83;;
22871;SDS011;11603;44.910;8.630;2023-04-15T05:40:05;11.35;;;3.15;;
22871;SDS011;11603;44.910;8.630;2023-04-15T05:42:30;7.22;;;3.10;;
22871;SDS011;11603;44.910;8.630;2023-04-15T05:44:56;12.52;;;4.20;;
22871;SDS011;11603;44.910;8.630;2023-04-15T05:47:22;9.07;;;3.72;;
22871;SDS011;11603;44.910;8.630;2023-04-15T05:49:47;15.20;;;4.10;;
22871;SDS011;11603;44.910;8.630;2023-04-15T05:52:13;8.00;;;3.15;;
22871;SDS011;11603;44.910;8.630;2023-04-15T05:54:38;11.73;;;3.42;;
22871;SDS011;11603;44.910;8.630;2023-04-15T05:57:04;16.05;;;3.83;;
22871;SDS011;11603;44.910;8.630;2023-04-15T05:59:29;7.25;;;2.92;;
22871;SDS011;11603;44.910;8.630;2023-04-15T06:01:55;7.57;;;2.92;;
22871;SDS011;11603;44.910;8.630;2023-04-15T06:04:21;11.27;;;3.60;;
22871;SDS011;11603;44.910;8.630;2023-04-15T06:06:47;12.27;;;3.30;;
22871;SDS011;11603;44.910;8.630;2023-04-15T06:09:12;10.68;;;3.50;;
22871;SDS011;11603;44.910;8.630;2023-04-15T06:11:38;7.22;;;3.42;;
22871;SDS011;11603;44.910;8.630;2023-04-15T06:14:05;8.52;;;3.00;;
22871;SDS011;11603;44.910;8.630;2023-04-15T06:16:30;6.97;;;3.17;;
22871;SDS011;11603;44.910;8.630;2023-04-15T06:18:56;13.27;;;3.60;;
22871;SDS011;11603;44.910;8.630;2023-04-15T06:21:22;10.32;;;3.13;;
22871;SDS011;11603;44.910;8.630;2023-04-15T06:23:47;17.38;;;3.65;;
22871;SDS011;11603;44.910;8.630;2023-04-15T06:26:13;9.65;;;3.50;;
22871;SDS011;11603;44.910;8.630;2023-04-15T06:28:38;6.65;;;3.17;;
22871;SDS011;11603;44.910;8.630;2023-04-15T06:31:03;10.68;;;3.35;;
22871;SDS011;11603;44.910;8.630;2023-04-15T06:33:30;13.18;;;4.15;;
22871;SDS011;11603;44.910;8.630;2023-04-15T06:35:55;11.30;;;4.15;;
22871;SDS011;11603;44.910;8.630;2023-04-15T06:38:21;6.13;;;3.17;;
22871;SDS011;11603;44.910;8.630;2023-04-15T06:40:46;10.60;;;3.63;;
22871;SDS011;11603;44.910;8.630;2023-04-15T06:43:12;15.85;;;4.47;;
22871;SDS011;11603;44.910;8.630;2023-04-15T06:45:38;9.70;;;5.05;;
22871;SDS011;11603;44.910;8.630;2023-04-15T06:48:03;11.18;;;3.85;;
22871;SDS011;11603;44.910;8.630;2023-04-15T06:50:29;15.35;;;5.43;;
22871;SDS011;11603;44.910;8.630;2023-04-15T06:52:55;15.93;;;4.10;;
22871;SDS011;11603;44.910;8.630;2023-04-15T06:55:21;8.98;;;3.90;;
22871;SDS011;11603;44.910;8.630;2023-04-15T06:57:47;11.95;;;3.90;;
22871;SDS011;11603;44.910;8.630;2023-04-15T07:00:13;9.10;;;3.60;;
22871;SDS011;11603;44.910;8.630;2023-04-15T07:02:38;11.43;;;4.28;;
22871;SDS011;11603;44.910;8.630;2023-04-15T07:05:04;11.18;;;3.85;;
22871;SDS011;11603;44.910;8.630;2023-04-15T07:07:30;11.60;;;4.25;;
22871;SDS011;11603;44.910;8.630;2023-04-15T07:09:56;11.20;;;3.80;;
22871;SDS011;11603;44.910;8.630;2023-04-15T07:12:21;12.75;;;3.70;;
22871;SDS011;11603;44.910;8.630;2023-04-15T07:14:47;10.60;;;4.05;;
22871;SDS011;11603;44.910;8.630;2023-04-15T07:17:13;12.77;;;3.78;;
22871;SDS011;11603;44.910;8.630;2023-04-15T07:19:39;10.43;;;3.83;;
22871;SDS011;11603;44.910;8.630;2023-04-15T07:22:09;7.80;;;3.47;;
22871;SDS011;11603;44.910;8.630;2023-04-15T07:24:34;11.85;;;3.70;;
22871;SDS011;11603;44.910;8.630;2023-04-15T07:27:00;10.55;;;3.85;;
22871;SDS011;11603;44.910;8.630;2023-04-15T07:29:25;10.98;;;4.25;;
22871;SDS011;11603;44.910;8.630;2023-04-15T07:31:51;11.00;;;3.83;;
22871;SDS011;11603;44.910;8.630;2023-04-15T07:34:17;13.63;;;3.83;;
22871;SDS011;11603;44.910;8.630;2023-04-15T07:36:44;10.57;;;3.80;;
22871;SDS011;11603;44.910;8.630;2023-04-15T07:39:10;8.75;;;3.50;;
22871;SDS011;11603;44.910;8.630;2023-04-15T07:41:36;8.55;;;3.90;;
22871;SDS011;11603;44.910;8.630;2023-04-15T07:44:01;10.30;;;3.92;;
22871;SDS011;11603;44.910;8.630;2023-04-15T07:46:27;10.98;;;3.60;;
22871;SDS011;11603;44.910;8.630;2023-04-15T07:48:52;32.50;;;4.45;;
22871;SDS011;11603;44.910;8.630;2023-04-15T07:51:18;7.05;;;3.00;;
22871;SDS011;11603;44.910;8.630;2023-04-15T07:53:56;10.98;;;3.63;;
22871;SDS011;11603;44.910;8.630;2023-04-15T07:56:24;11.00;;;2.88;;
22871;SDS011;11603;44.910;8.630;2023-04-15T07:58:50;15.05;;;3.92;;
22871;SDS011;11603;44.910;8.630;2023-04-15T08:01:19;9.57;;;3.88;;
22871;SDS011;11603;44.910;8.630;2023-04-15T08:03:45;9.75;;;3.45;;
22871;SDS011;11603;44.910;8.630;2023-04-15T08:06:11;14.93;;;3.63;;
22871;SDS011;11603;44.910;8.630;2023-04-15T08:08:38;11.60;;;3.30;;
22871;SDS011;11603;44.910;8.630;2023-04-15T08:11:04;12.10;;;3.58;;
22871;SDS011;11603;44.910;8.630;2023-04-15T08:13:30;12.93;;;3.92;;
22871;SDS011;11603;44.910;8.630;2023-04-15T08:16:15;11.70;;;4.00;;
22871;SDS011;11603;44.910;8.630;2023-04-15T08:18:42;10.02;;;3.70;;
22871;SDS011;11603;44.910;8.630;2023-04-15T08:21:08;17.15;;;6.05;;
22871;SDS011;11603;44.910;8.630;2023-04-15T08:23:34;11.52;;;4.15;;
22871;SDS011;11603;44.910;8.630;2023-04-15T08:26:00;9.77;;;3.95;;
22871;SDS011;11603;44.910;8.630;2023-04-15T08:28:25;11.30;;;3.17;;
22871;SDS011;11603;44.910;8.630;2023-04-15T08:30:54;11.27;;;3.75;;
22871;SDS011;11603;44.910;8.630;2023-04-15T08:33:19;11.00;;;3.65;;
22871;SDS011;11603;44.910;8.630;2023-04-15T08:35:45;12.85;;;3.30;;
22871;SDS011;11603;44.910;8.630;2023-04-15T08:38:11;11.88;;;3.55;;
22871;SDS011;11603;44.910;8.630;2023-04-15T08:40:45;11.27;;;3.60;;
22871;SDS011;11603;44.910;8.630;2023-04-15T08:43:23;6.53;;;2.95;;
22871;SDS011;11603;44.910;8.630;2023-04-15T08:45:53;11.75;;;3.28;;
22871;SDS011;11603;44.910;8.630;2023-04-15T08:48:20;13.30;;;3.22;;
22871;SDS011;11603;44.910;8.630;2023-04-15T08:50:47;9.23;;;2.67;;
22871;SDS011;11603;44.910;8.630;2023-04-15T08:53:13;11.05;;;2.97;;
22871;SDS011;11603;44.910;8.630;2023-04-15T08:55:43;11.65;;;3.53;;
22871;SDS011;11603;44.910;8.630;2023-04-15T08:58:10;8.15;;;2.92;;
22871;SDS011;11603;44.910;8.630;2023-04-15T09:00:37;8.60;;;2.78;;
22871;SDS011;11603;44.910;8.630;2023-04-15T09:03:05;12.82;;;3.45;;
22871;SDS011;11603;44.910;8.630;2023-04-15T09:05:31;11.60;;;3.15;;
22871;SDS011;11603;44.910;8.630;2023-04-15T09:07:57;5.70;;;2.97;;
22871;SDS011;11603;44.910;8.630;2023-04-15T09:10:23;12.60;;;3.83;;
22871;SDS011;11603;44.910;8.630;2023-04-15T09:12:48;9.55;;;3.10;;
22871;SDS011;11603;44.910;8.630;2023-04-15T09:15:14;8.82;;;3.70;;
22871;SDS011;11603;44.910;8.630;2023-04-15T09:17:45;9.10;;;4.30;;
22871;SDS011;11603;44.910;8.630;2023-04-15T09:20:13;8.13;;;3.88;;
22871;SDS011;11603;44.910;8.630;2023-04-15T09:22:41;9.38;;;3.25;;
22871;SDS011;11603;44.910;8.630;2023-04-15T09:27:50;9.48;;;3.20;;
22871;SDS011;11603;44.910;8.630;2023-04-15T09:30:17;11.95;;;3.15;;
22871;SDS011;11603;44.910;8.630;2023-04-15T09:35:22;11.80;;;2.53;;
22871;SDS011;11603;44.910;8.630;2023-04-15T09:37:49;8.77;;;2.38;;
22871;SDS011;11603;44.910;8.630;2023-04-15T09:40:31;10.35;;;2.42;;
22871;SDS011;11603;44.910;8.630;2023-04-15T09:43:04;8.73;;;2.80;;
22871;SDS011;11603;44.910;8.630;2023-04-15T09:45:31;12.15;;;3.10;;
22871;SDS011;11603;44.910;8.630;2023-04-15T09:47:58;11.90;;;3.00;;
22871;SDS011;11603;44.910;8.630;2023-04-15T09:50:39;9.30;;;2.45;;
22871;SDS011;11603;44.910;8.630;2023-04-15T09:53:08;9.77;;;2.70;;
22871;SDS011;11603;44.910;8.630;2023-04-15T09:55:43;9.57;;;2.70;;
22871;SDS011;11603;44.910;8.630;2023-04-15T09:58:26;11.13;;;2.95;;
22871;SDS011;11603;44.910;8.630;2023-04-15T10:00:53;12.18;;;2.95;;
22871;SDS011;11603;44.910;8.630;2023-04-15T10:03:21;10.05;;;2.63;;
22871;SDS011;11603;44.910;8.630;2023-04-15T10:05:48;8.73;;;2.55;;
22871;SDS011;11603;44.910;8.630;2023-04-15T10:08:19;9.40;;;2.65;;
22871;SDS011;11603;44.910;8.630;2023-04-15T10:10:47;11.35;;;2.83;;
22871;SDS011;11603;44.910;8.630;2023-04-15T10:13:13;11.43;;;2.60;;
22871;SDS011;11603;44.910;8.630;2023-04-15T10:18:49;6.63;;;2.70;;
22871;SDS011;11603;44.910;8.630;2023-04-15T10:22:13;11.85;;;2.90;;
22871;SDS011;11603;44.910;8.630;2023-04-15T10:27:59;9.73;;;2.75;;
22871;SDS011;11603;44.910;8.630;2023-04-15T10:34:58;9.52;;;3.20;;
22871;SDS011;11603;44.910;8.630;2023-04-15T10:38:17;10.30;;;2.90;;
22871;SDS011;11603;44.910;8.630;2023-04-15T10:41:25;9.82;;;3.45;;
22871;SDS011;11603;44.910;8.630;2023-04-15T10:49:05;9.32;;;2.70;;
22871;SDS011;11603;44.910;8.630;2023-04-15T10:59:10;6.95;;;2.95;;
22871;SDS011;11603;44.910;8.630;2023-04-15T11:06:03;7.30;;;2.97;;
22871;SDS011;11603;44.910;8.630;2023-04-15T11:14:54;8.55;;;2.38;;
22871;SDS011;11603;44.910;8.630;2023-04-15T12:05:19;11.75;;;3.17;;
22871;SDS011;11603;44.910;8.630;2023-04-15T13:57:28;9.93;;;3.65;;
22871;SDS011;11603;44.910;8.630;2023-04-15T20:44:17;5.68;;;3.28;;
